Chickaloon, Alaska
Current Conditions -  °F | °C
As of 5:53 PM on Saturday 20 Dec 2014 (Local Time) from PAAQ Reporting Station
Overcast Overcast  
Wind Chill: 15°   Ceiling: 16000
Heat Index: 15°   Visibility: 10mi
Dew Point: 12°   Wind: 0mph
Humidity: 88%   Direction: NA
Pressure: 28.85"   Gusts: NA
Location:  61.7964°N, 148.462°W
Report Text: PAAQ 210253Z 00000KT 10SM BKN160 OVC200 M09/M11 A2885 RMK AO2 SLP775 I3000 T10941111 55000
Loading
Personal Weather Stations






























Interactive Weather Map New forecast layout! Learn more

10-Day Weather Forecast

Advertisements
Track Severe Weather on mobile